sensor_id;sensor_type;location;lat;lon;timestamp;P1;durP1;ratioP1;P2;durP2;ratioP2
77573;SDS011;66710;48.868;9.080;2024-03-29T00:02:12;1.85;;;0.50;;
77573;SDS011;66710;48.868;9.080;2024-03-29T00:04:38;2.47;;;0.77;;
77573;SDS011;66710;48.868;9.080;2024-03-29T00:07:03;0.73;;;0.52;;
77573;SDS011;66710;48.868;9.080;2024-03-29T00:09:28;3.53;;;0.90;;
77573;SDS011;66710;48.868;9.080;2024-03-29T00:11:54;2.80;;;1.50;;
77573;SDS011;66710;48.868;9.080;2024-03-29T00:14:19;1.23;;;0.82;;
77573;SDS011;66710;48.868;9.080;2024-03-29T00:16:44;1.15;;;0.80;;
77573;SDS011;66710;48.868;9.080;2024-03-29T00:19:10;2.30;;;1.00;;
77573;SDS011;66710;48.868;9.080;2024-03-29T00:21:35;2.20;;;0.77;;
77573;SDS011;66710;48.868;9.080;2024-03-29T00:24:00;1.42;;;0.75;;
77573;SDS011;66710;48.868;9.080;2024-03-29T00:26:25;1.52;;;0.88;;
77573;SDS011;66710;48.868;9.080;2024-03-29T00:28:51;1.90;;;0.90;;
77573;SDS011;66710;48.868;9.080;2024-03-29T00:31:16;1.60;;;0.80;;
77573;SDS011;66710;48.868;9.080;2024-03-29T00:33:41;0.52;;;0.30;;
77573;SDS011;66710;48.868;9.080;2024-03-29T00:36:07;2.10;;;1.00;;
77573;SDS011;66710;48.868;9.080;2024-03-29T00:38:32;1.15;;;0.63;;
77573;SDS011;66710;48.868;9.080;2024-03-29T00:40:57;6.22;;;0.60;;
77573;SDS011;66710;48.868;9.080;2024-03-29T00:43:23;2.08;;;0.63;;
77573;SDS011;66710;48.868;9.080;2024-03-29T00:45:48;0.85;;;0.57;;
77573;SDS011;66710;48.868;9.080;2024-03-29T00:48:13;0.40;;;0.40;;
77573;SDS011;66710;48.868;9.080;2024-03-29T00:50:40;2.05;;;0.90;;
77573;SDS011;66710;48.868;9.080;2024-03-29T00:53:05;1.23;;;0.77;;
77573;SDS011;66710;48.868;9.080;2024-03-29T00:55:31;1.63;;;0.80;;
77573;SDS011;66710;48.868;9.080;2024-03-29T00:57:56;2.70;;;1.00;;
77573;SDS011;66710;48.868;9.080;2024-03-29T01:00:21;1.70;;;0.98;;
77573;SDS011;66710;48.868;9.080;2024-03-29T01:02:46;1.55;;;0.73;;
77573;SDS011;66710;48.868;9.080;2024-03-29T01:05:12;1.90;;;0.85;;
77573;SDS011;66710;48.868;9.080;2024-03-29T01:07:39;1.55;;;0.80;;
77573;SDS011;66710;48.868;9.080;2024-03-29T01:10:05;1.25;;;0.82;;
77573;SDS011;66710;48.868;9.080;2024-03-29T01:12:31;2.13;;;1.10;;
77573;SDS011;66710;48.868;9.080;2024-03-29T01:14:56;1.63;;;0.80;;
77573;SDS011;66710;48.868;9.080;2024-03-29T01:17:21;1.05;;;0.65;;
77573;SDS011;66710;48.868;9.080;2024-03-29T01:19:47;2.17;;;1.00;;
77573;SDS011;66710;48.868;9.080;2024-03-29T01:22:12;1.55;;;0.75;;
77573;SDS011;66710;48.868;9.080;2024-03-29T01:24:37;1.17;;;0.70;;
77573;SDS011;66710;48.868;9.080;2024-03-29T01:27:03;2.40;;;0.57;;
77573;SDS011;66710;48.868;9.080;2024-03-29T01:29:31;1.13;;;0.80;;
77573;SDS011;66710;48.868;9.080;2024-03-29T01:31:56;2.30;;;1.00;;
77573;SDS011;66710;48.868;9.080;2024-03-29T01:34:22;2.28;;;1.10;;
77573;SDS011;66710;48.868;9.080;2024-03-29T01:36:47;2.22;;;0.95;;
77573;SDS011;66710;48.868;9.080;2024-03-29T01:39:12;1.75;;;0.93;;
77573;SDS011;66710;48.868;9.080;2024-03-29T01:41:40;1.60;;;0.52;;
77573;SDS011;66710;48.868;9.080;2024-03-29T01:44:06;1.33;;;0.85;;
77573;SDS011;66710;48.868;9.080;2024-03-29T01:46:31;1.20;;;0.75;;
77573;SDS011;66710;48.868;9.080;2024-03-29T01:49:01;1.20;;;0.70;;
77573;SDS011;66710;48.868;9.080;2024-03-29T01:51:28;0.82;;;0.77;;
77573;SDS011;66710;48.868;9.080;2024-03-29T01:53:54;2.35;;;0.80;;
77573;SDS011;66710;48.868;9.080;2024-03-29T01:56:20;1.30;;;0.90;;
77573;SDS011;66710;48.868;9.080;2024-03-29T01:58:47;1.48;;;0.77;;
77573;SDS011;66710;48.868;9.080;2024-03-29T02:01:16;1.13;;;0.52;;
77573;SDS011;66710;48.868;9.080;2024-03-29T02:03:42;2.08;;;0.90;;
77573;SDS011;66710;48.868;9.080;2024-03-29T02:06:07;1.30;;;0.80;;
77573;SDS011;66710;48.868;9.080;2024-03-29T02:08:35;4.78;;;0.90;;
77573;SDS011;66710;48.868;9.080;2024-03-29T02:11:01;1.70;;;0.80;;
77573;SDS011;66710;48.868;9.080;2024-03-29T02:13:28;1.70;;;0.50;;
77573;SDS011;66710;48.868;9.080;2024-03-29T02:15:54;1.23;;;0.50;;
77573;SDS011;66710;48.868;9.080;2024-03-29T02:18:19;1.63;;;0.90;;
77573;SDS011;66710;48.868;9.080;2024-03-29T02:20:45;0.77;;;0.70;;
77573;SDS011;66710;48.868;9.080;2024-03-29T02:23:11;1.63;;;0.93;;
77573;SDS011;66710;48.868;9.080;2024-03-29T02:25:39;0.90;;;0.55;;
77573;SDS011;66710;48.868;9.080;2024-03-29T02:28:05;0.30;;;0.30;;
77573;SDS011;66710;48.868;9.080;2024-03-29T02:30:31;0.85;;;0.50;;
77573;SDS011;66710;48.868;9.080;2024-03-29T02:32:59;1.02;;;0.55;;
77573;SDS011;66710;48.868;9.080;2024-03-29T02:35:25;1.10;;;0.57;;
77573;SDS011;66710;48.868;9.080;2024-03-29T02:37:51;1.38;;;0.85;;
77573;SDS011;66710;48.868;9.080;2024-03-29T02:40:17;2.15;;;0.90;;
77573;SDS011;66710;48.868;9.080;2024-03-29T02:42:43;1.23;;;0.57;;
77573;SDS011;66710;48.868;9.080;2024-03-29T02:45:08;1.27;;;0.80;;
77573;SDS011;66710;48.868;9.080;2024-03-29T02:47:34;1.40;;;0.60;;
77573;SDS011;66710;48.868;9.080;2024-03-29T02:49:59;1.75;;;0.80;;
77573;SDS011;66710;48.868;9.080;2024-03-29T02:52:25;1.73;;;0.70;;
77573;SDS011;66710;48.868;9.080;2024-03-29T02:54:50;0.98;;;0.60;;
77573;SDS011;66710;48.868;9.080;2024-03-29T02:57:16;1.00;;;0.70;;
77573;SDS011;66710;48.868;9.080;2024-03-29T02:59:41;1.67;;;0.90;;
77573;SDS011;66710;48.868;9.080;2024-03-29T03:02:06;0.98;;;0.70;;
77573;SDS011;66710;48.868;9.080;2024-03-29T03:04:32;1.90;;;0.70;;
77573;SDS011;66710;48.868;9.080;2024-03-29T03:06:57;1.38;;;0.80;;
77573;SDS011;66710;48.868;9.080;2024-03-29T03:09:43;1.38;;;0.80;;
77573;SDS011;66710;48.868;9.080;2024-03-29T03:12:28;1.40;;;0.80;;
77573;SDS011;66710;48.868;9.080;2024-03-29T03:14:54;1.08;;;0.60;;
77573;SDS011;66710;48.868;9.080;2024-03-29T03:17:19;1.33;;;0.82;;
77573;SDS011;66710;48.868;9.080;2024-03-29T03:19:45;1.65;;;0.82;;
77573;SDS011;66710;48.868;9.080;2024-03-29T03:22:10;1.42;;;0.80;;
77573;SDS011;66710;48.868;9.080;2024-03-29T03:24:35;0.73;;;0.55;;
77573;SDS011;66710;48.868;9.080;2024-03-29T03:27:01;1.35;;;1.05;;
77573;SDS011;66710;48.868;9.080;2024-03-29T03:29:26;1.20;;;0.75;;
77573;SDS011;66710;48.868;9.080;2024-03-29T03:31:51;1.00;;;0.60;;
77573;SDS011;66710;48.868;9.080;2024-03-29T03:34:17;1.35;;;0.70;;
77573;SDS011;66710;48.868;9.080;2024-03-29T03:36:42;2.67;;;0.80;;
77573;SDS011;66710;48.868;9.080;2024-03-29T03:39:07;1.48;;;0.65;;
77573;SDS011;66710;48.868;9.080;2024-03-29T03:41:33;1.20;;;0.70;;
77573;SDS011;66710;48.868;9.080;2024-03-29T03:43:58;1.80;;;0.82;;
77573;SDS011;66710;48.868;9.080;2024-03-29T03:46:24;3.13;;;0.63;;
77573;SDS011;66710;48.868;9.080;2024-03-29T03:48:49;0.80;;;0.70;;
77573;SDS011;66710;48.868;9.080;2024-03-29T03:51:14;1.10;;;0.77;;
77573;SDS011;66710;48.868;9.080;2024-03-29T03:53:40;1.65;;;0.88;;
77573;SDS011;66710;48.868;9.080;2024-03-29T03:56:05;2.60;;;0.63;;
77573;SDS011;66710;48.868;9.080;2024-03-29T03:58:31;2.00;;;0.68;;
77573;SDS011;66710;48.868;9.080;2024-03-29T04:00:56;1.23;;;0.60;;
77573;SDS011;66710;48.868;9.080;2024-03-29T04:03:22;2.10;;;0.95;;
77573;SDS011;66710;48.868;9.080;2024-03-29T04:05:47;1.10;;;0.80;;
77573;SDS011;66710;48.868;9.080;2024-03-29T04:08:12;2.50;;;0.95;;
77573;SDS011;66710;48.868;9.080;2024-03-29T04:10:39;1.73;;;0.90;;
77573;SDS011;66710;48.868;9.080;2024-03-29T04:13:05;1.90;;;0.80;;
77573;SDS011;66710;48.868;9.080;2024-03-29T04:15:30;2.08;;;0.95;;
77573;SDS011;66710;48.868;9.080;2024-03-29T04:17:58;2.63;;;1.08;;
77573;SDS011;66710;48.868;9.080;2024-03-29T04:20:24;2.10;;;0.80;;
77573;SDS011;66710;48.868;9.080;2024-03-29T04:22:49;1.52;;;0.85;;
77573;SDS011;66710;48.868;9.080;2024-03-29T04:25:15;0.80;;;0.60;;
77573;SDS011;66710;48.868;9.080;2024-03-29T04:27:40;3.17;;;0.70;;
77573;SDS011;66710;48.868;9.080;2024-03-29T04:30:06;1.85;;;0.85;;
77573;SDS011;66710;48.868;9.080;2024-03-29T04:32:32;1.73;;;0.93;;
77573;SDS011;66710;48.868;9.080;2024-03-29T04:34:57;0.90;;;0.75;;
77573;SDS011;66710;48.868;9.080;2024-03-29T04:37:23;3.22;;;0.90;;
77573;SDS011;66710;48.868;9.080;2024-03-29T04:39:48;1.20;;;0.80;;
77573;SDS011;66710;48.868;9.080;2024-03-29T04:42:13;2.20;;;0.47;;
77573;SDS011;66710;48.868;9.080;2024-03-29T04:44:40;0.82;;;0.50;;
77573;SDS011;66710;48.868;9.080;2024-03-29T04:47:05;1.45;;;0.55;;
77573;SDS011;66710;48.868;9.080;2024-03-29T04:49:31;0.45;;;0.35;;
77573;SDS011;66710;48.868;9.080;2024-03-29T04:51:59;1.27;;;0.57;;
77573;SDS011;66710;48.868;9.080;2024-03-29T04:54:25;0.95;;;0.60;;
77573;SDS011;66710;48.868;9.080;2024-03-29T04:56:52;0.98;;;0.60;;
77573;SDS011;66710;48.868;9.080;2024-03-29T04:59:18;0.65;;;0.50;;
77573;SDS011;66710;48.868;9.080;2024-03-29T05:01:45;1.95;;;1.23;;
77573;SDS011;66710;48.868;9.080;2024-03-29T05:04:15;1.95;;;0.80;;
77573;SDS011;66710;48.868;9.080;2024-03-29T05:06:50;1.95;;;0.90;;
77573;SDS011;66710;48.868;9.080;2024-03-29T05:09:16;1.13;;;0.60;;
77573;SDS011;66710;48.868;9.080;2024-03-29T05:11:41;1.95;;;0.88;;
77573;SDS011;66710;48.868;9.080;2024-03-29T05:14:07;1.63;;;0.73;;
77573;SDS011;66710;48.868;9.080;2024-03-29T05:16:32;1.35;;;0.68;;
77573;SDS011;66710;48.868;9.080;2024-03-29T05:18:57;1.77;;;0.82;;
77573;SDS011;66710;48.868;9.080;2024-03-29T05:21:23;1.27;;;0.73;;
77573;SDS011;66710;48.868;9.080;2024-03-29T05:23:48;1.58;;;1.00;;
77573;SDS011;66710;48.868;9.080;2024-03-29T05:26:13;1.00;;;0.88;;
77573;SDS011;66710;48.868;9.080;2024-03-29T05:28:39;1.10;;;0.85;;
77573;SDS011;66710;48.868;9.080;2024-03-29T05:31:13;2.30;;;1.00;;
77573;SDS011;66710;48.868;9.080;2024-03-29T05:33:40;2.10;;;1.00;;
77573;SDS011;66710;48.868;9.080;2024-03-29T05:36:06;2.42;;;1.20;;
77573;SDS011;66710;48.868;9.080;2024-03-29T05:38:33;1.10;;;0.65;;
77573;SDS011;66710;48.868;9.080;2024-03-29T05:40:59;2.38;;;1.10;;
77573;SDS011;66710;48.868;9.080;2024-03-29T05:43:24;1.40;;;0.82;;
77573;SDS011;66710;48.868;9.080;2024-03-29T05:45:52;1.35;;;0.75;;
77573;SDS011;66710;48.868;9.080;2024-03-29T05:48:18;1.67;;;0.98;;
77573;SDS011;66710;48.868;9.080;2024-03-29T05:50:46;1.02;;;0.75;;
77573;SDS011;66710;48.868;9.080;2024-03-29T05:53:12;1.02;;;0.70;;
77573;SDS011;66710;48.868;9.080;2024-03-29T05:55:37;1.70;;;0.90;;
77573;SDS011;66710;48.868;9.080;2024-03-29T05:58:02;2.28;;;0.90;;
77573;SDS011;66710;48.868;9.080;2024-03-29T06:00:28;1.52;;;0.95;;
77573;SDS011;66710;48.868;9.080;2024-03-29T06:02:54;3.25;;;1.10;;
77573;SDS011;66710;48.868;9.080;2024-03-29T06:05:19;2.30;;;1.00;;
77573;SDS011;66710;48.868;9.080;2024-03-29T06:07:45;2.50;;;1.00;;
77573;SDS011;66710;48.868;9.080;2024-03-29T06:10:10;1.95;;;0.90;;
77573;SDS011;66710;48.868;9.080;2024-03-29T06:12:36;1.38;;;0.95;;
77573;SDS011;66710;48.868;9.080;2024-03-29T06:15:04;2.10;;;0.90;;
77573;SDS011;66710;48.868;9.080;2024-03-29T06:17:51;1.33;;;0.95;;
77573;SDS011;66710;48.868;9.080;2024-03-29T06:20:16;2.97;;;1.00;;
77573;SDS011;66710;48.868;9.080;2024-03-29T06:22:42;1.45;;;0.90;;
77573;SDS011;66710;48.868;9.080;2024-03-29T06:25:07;3.15;;;1.05;;
77573;SDS011;66710;48.868;9.080;2024-03-29T06:27:34;1.52;;;1.00;;
77573;SDS011;66710;48.868;9.080;2024-03-29T06:30:00;2.65;;;1.15;;
77573;SDS011;66710;48.868;9.080;2024-03-29T06:32:27;2.78;;;1.05;;
77573;SDS011;66710;48.868;9.080;2024-03-29T06:34:52;1.63;;;1.00;;
77573;SDS011;66710;48.868;9.080;2024-03-29T06:37:18;1.77;;;0.93;;
77573;SDS011;66710;48.868;9.080;2024-03-29T06:39:46;1.25;;;0.77;;
77573;SDS011;66710;48.868;9.080;2024-03-29T06:42:12;2.40;;;0.90;;
77573;SDS011;66710;48.868;9.080;2024-03-29T06:44:37;2.95;;;1.00;;
77573;SDS011;66710;48.868;9.080;2024-03-29T06:47:03;1.40;;;0.80;;
77573;SDS011;66710;48.868;9.080;2024-03-29T06:49:29;1.52;;;0.88;;
77573;SDS011;66710;48.868;9.080;2024-03-29T06:51:55;0.70;;;0.60;;
77573;SDS011;66710;48.868;9.080;2024-03-29T06:54:22;1.60;;;0.85;;
77573;SDS011;66710;48.868;9.080;2024-03-29T06:56:51;2.38;;;0.73;;
77573;SDS011;66710;48.868;9.080;2024-03-29T06:59:20;1.55;;;0.98;;
77573;SDS011;66710;48.868;9.080;2024-03-29T07:01:46;1.83;;;0.80;;
77573;SDS011;66710;48.868;9.080;2024-03-29T07:04:12;2.03;;;0.90;;
77573;SDS011;66710;48.868;9.080;2024-03-29T07:06:38;2.78;;;1.00;;
77573;SDS011;66710;48.868;9.080;2024-03-29T07:09:07;2.15;;;1.00;;
77573;SDS011;66710;48.868;9.080;2024-03-29T07:11:32;1.50;;;0.90;;
77573;SDS011;66710;48.868;9.080;2024-03-29T07:13:58;1.50;;;0.75;;
77573;SDS011;66710;48.868;9.080;2024-03-29T07:16:23;1.92;;;1.10;;
77573;SDS011;66710;48.868;9.080;2024-03-29T07:18:48;1.30;;;0.85;;
77573;SDS011;66710;48.868;9.080;2024-03-29T07:21:14;1.88;;;1.08;;
77573;SDS011;66710;48.868;9.080;2024-03-29T07:23:39;2.50;;;1.00;;
77573;SDS011;66710;48.868;9.080;2024-03-29T07:26:05;1.98;;;0.90;;
77573;SDS011;66710;48.868;9.080;2024-03-29T07:28:30;2.50;;;0.90;;
77573;SDS011;66710;48.868;9.080;2024-03-29T07:30:56;3.08;;;1.00;;
77573;SDS011;66710;48.868;9.080;2024-03-29T07:33:22;2.72;;;1.20;;
77573;SDS011;66710;48.868;9.080;2024-03-29T07:35:54;3.35;;;1.10;;
77573;SDS011;66710;48.868;9.080;2024-03-29T07:38:21;1.23;;;0.63;;
77573;SDS011;66710;48.868;9.080;2024-03-29T07:40:48;1.83;;;0.90;;
77573;SDS011;66710;48.868;9.080;2024-03-29T07:43:14;2.95;;;1.30;;
77573;SDS011;66710;48.868;9.080;2024-03-29T07:45:40;1.73;;;1.20;;
77573;SDS011;66710;48.868;9.080;2024-03-29T07:48:07;4.85;;;1.23;;
77573;SDS011;66710;48.868;9.080;2024-03-29T07:50:34;2.03;;;1.02;;
77573;SDS011;66710;48.868;9.080;2024-03-29T07:52:59;2.03;;;1.23;;
77573;SDS011;66710;48.868;9.080;2024-03-29T07:55:25;2.83;;;1.23;;
77573;SDS011;66710;48.868;9.080;2024-03-29T07:57:50;2.53;;;1.20;;
77573;SDS011;66710;48.868;9.080;2024-03-29T08:00:16;3.00;;;1.25;;
77573;SDS011;66710;48.868;9.080;2024-03-29T08:02:42;2.22;;;1.30;;
77573;SDS011;66710;48.868;9.080;2024-03-29T08:05:07;2.58;;;1.27;;
77573;SDS011;66710;48.868;9.080;2024-03-29T08:07:32;3.25;;;1.50;;
77573;SDS011;66710;48.868;9.080;2024-03-29T08:09:58;2.28;;;1.00;;
77573;SDS011;66710;48.868;9.080;2024-03-29T08:12:23;1.35;;;0.85;;
77573;SDS011;66710;48.868;9.080;2024-03-29T08:14:48;2.28;;;1.33;;
77573;SDS011;66710;48.868;9.080;2024-03-29T08:17:14;2.30;;;0.77;;
77573;SDS011;66710;48.868;9.080;2024-03-29T08:19:40;1.83;;;1.20;;
77573;SDS011;66710;48.868;9.080;2024-03-29T08:22:06;2.28;;;1.13;;
77573;SDS011;66710;48.868;9.080;2024-03-29T08:24:35;1.40;;;1.00;;
77573;SDS011;66710;48.868;9.080;2024-03-29T08:27:01;2.88;;;1.10;;
77573;SDS011;66710;48.868;9.080;2024-03-29T08:29:27;2.53;;;1.50;;
77573;SDS011;66710;48.868;9.080;2024-03-29T08:31:52;4.40;;;1.38;;
77573;SDS011;66710;48.868;9.080;2024-03-29T08:34:18;2.55;;;1.08;;
77573;SDS011;66710;48.868;9.080;2024-03-29T08:36:43;1.88;;;0.85;;
77573;SDS011;66710;48.868;9.080;2024-03-29T08:39:09;1.80;;;0.70;;
77573;SDS011;66710;48.868;9.080;2024-03-29T08:41:35;2.30;;;1.25;;
77573;SDS011;66710;48.868;9.080;2024-03-29T08:44:01;1.42;;;0.80;;
77573;SDS011;66710;48.868;9.080;2024-03-29T08:46:27;2.17;;;0.90;;
77573;SDS011;66710;48.868;9.080;2024-03-29T08:48:53;1.67;;;1.05;;
77573;SDS011;66710;48.868;9.080;2024-03-29T08:51:20;2.13;;;1.27;;
77573;SDS011;66710;48.868;9.080;2024-03-29T08:53:45;1.55;;;1.00;;
77573;SDS011;66710;48.868;9.080;2024-03-29T08:56:12;1.45;;;0.90;;
77573;SDS011;66710;48.868;9.080;2024-03-29T08:58:37;0.98;;;0.70;;
77573;SDS011;66710;48.868;9.080;2024-03-29T09:01:03;1.85;;;0.80;;
77573;SDS011;66710;48.868;9.080;2024-03-29T09:03:29;1.95;;;0.93;;
77573;SDS011;66710;48.868;9.080;2024-03-29T09:05:56;2.30;;;1.15;;
77573;SDS011;66710;48.868;9.080;2024-03-29T09:08:21;2.25;;;1.08;;
77573;SDS011;66710;48.868;9.080;2024-03-29T09:10:47;1.65;;;1.05;;
77573;SDS011;66710;48.868;9.080;2024-03-29T09:13:12;1.98;;;1.20;;
77573;SDS011;66710;48.868;9.080;2024-03-29T09:15:38;2.83;;;1.20;;
77573;SDS011;66710;48.868;9.080;2024-03-29T09:18:03;2.30;;;1.20;;
77573;SDS011;66710;48.868;9.080;2024-03-29T09:23:04;2.53;;;1.30;;
77573;SDS011;66710;48.868;9.080;2024-03-29T09:25:29;3.20;;;1.15;;
77573;SDS011;66710;48.868;9.080;2024-03-29T09:27:57;2.10;;;1.10;;
77573;SDS011;66710;48.868;9.080;2024-03-29T09:30:22;1.88;;;1.00;;
77573;SDS011;66710;48.868;9.080;2024-03-29T09:32:48;2.00;;;0.98;;
77573;SDS011;66710;48.868;9.080;2024-03-29T09:35:15;1.35;;;0.60;;
77573;SDS011;66710;48.868;9.080;2024-03-29T09:37:42;2.78;;;1.27;;
77573;SDS011;66710;48.868;9.080;2024-03-29T09:40:07;2.83;;;1.25;;
77573;SDS011;66710;48.868;9.080;2024-03-29T09:42:35;3.15;;;1.45;;
77573;SDS011;66710;48.868;9.080;2024-03-29T09:45:03;2.58;;;1.40;;
77573;SDS011;66710;48.868;9.080;2024-03-29T09:47:31;3.40;;;1.50;;
77573;SDS011;66710;48.868;9.080;2024-03-29T09:49:58;2.67;;;1.55;;
77573;SDS011;66710;48.868;9.080;2024-03-29T09:52:26;3.20;;;1.67;;
77573;SDS011;66710;48.868;9.080;2024-03-29T09:54:52;2.75;;;1.40;;
77573;SDS011;66710;48.868;9.080;2024-03-29T09:57:18;1.85;;;1.20;;
77573;SDS011;66710;48.868;9.080;2024-03-29T09:59:44;2.33;;;1.17;;
77573;SDS011;66710;48.868;9.080;2024-03-29T10:02:11;1.48;;;1.08;;
77573;SDS011;66710;48.868;9.080;2024-03-29T10:04:44;3.00;;;1.80;;
77573;SDS011;66710;48.868;9.080;2024-03-29T10:07:11;3.97;;;2.20;;
77573;SDS011;66710;48.868;9.080;2024-03-29T10:09:42;3.22;;;1.95;;
77573;SDS011;66710;48.868;9.080;2024-03-29T10:12:09;3.75;;;1.67;;
77573;SDS011;66710;48.868;9.080;2024-03-29T10:14:45;5.85;;;2.30;;
77573;SDS011;66710;48.868;9.080;2024-03-29T10:17:14;3.40;;;1.70;;
77573;SDS011;66710;48.868;9.080;2024-03-29T10:19:42;3.72;;;1.70;;
77573;SDS011;66710;48.868;9.080;2024-03-29T10:22:07;4.40;;;2.15;;
77573;SDS011;66710;48.868;9.080;2024-03-29T10:24:33;3.53;;;1.70;;
77573;SDS011;66710;48.868;9.080;2024-03-29T10:26:58;6.30;;;2.55;;
77573;SDS011;66710;48.868;9.080;2024-03-29T10:29:30;3.28;;;1.70;;
77573;SDS011;66710;48.868;9.080;2024-03-29T10:31:56;3.88;;;1.80;;
77573;SDS011;66710;48.868;9.080;2024-03-29T10:34:22;3.05;;;1.70;;
77573;SDS011;66710;48.868;9.080;2024-03-29T10:36:49;3.47;;;1.90;;
77573;SDS011;66710;48.868;9.080;2024-03-29T10:39:16;6.35;;;1.98;;
77573;SDS011;66710;48.868;9.080;2024-03-29T10:41:42;3.47;;;1.65;;
77573;SDS011;66710;48.868;9.080;2024-03-29T10:44:09;6.68;;;2.00;;
77573;SDS011;66710;48.868;9.080;2024-03-29T10:46:39;2.90;;;1.83;;
77573;SDS011;66710;48.868;9.080;2024-03-29T10:49:06;4.38;;;2.80;;
77573;SDS011;66710;48.868;9.080;2024-03-29T10:51:38;4.40;;;2.38;;
77573;SDS011;66710;48.868;9.080;2024-03-29T10:54:05;11.38;;;6.18;;
77573;SDS011;66710;48.868;9.080;2024-03-29T10:56:31;9.50;;;4.53;;
77573;SDS011;66710;48.868;9.080;2024-03-29T10:59:00;7.78;;;4.15;;
77573;SDS011;66710;48.868;9.080;2024-03-29T11:01:44;4.85;;;1.98;;
77573;SDS011;66710;48.868;9.080;2024-03-29T11:04:17;3.92;;;1.75;;
77573;SDS011;66710;48.868;9.080;2024-03-29T11:06:47;3.15;;;1.75;;
77573;SDS011;66710;48.868;9.080;2024-03-29T11:09:16;4.93;;;1.65;;
77573;SDS011;66710;48.868;9.080;2024-03-29T11:11:46;2.75;;;1.40;;
77573;SDS011;66710;48.868;9.080;2024-03-29T11:14:27;3.17;;;1.90;;
77573;SDS011;66710;48.868;9.080;2024-03-29T11:17:14;3.50;;;1.80;;
77573;SDS011;66710;48.868;9.080;2024-03-29T11:19:41;3.80;;;2.10;;
77573;SDS011;66710;48.868;9.080;2024-03-29T11:22:07;3.53;;;2.30;;
77573;SDS011;66710;48.868;9.080;2024-03-29T11:24:32;3.90;;;2.20;;
77573;SDS011;66710;48.868;9.080;2024-03-29T11:27:06;3.55;;;1.85;;
77573;SDS011;66710;48.868;9.080;2024-03-29T11:29:33;4.75;;;1.95;;
77573;SDS011;66710;48.868;9.080;2024-03-29T11:32:03;2.63;;;1.60;;
77573;SDS011;66710;48.868;9.080;2024-03-29T11:34:33;3.53;;;1.83;;
77573;SDS011;66710;48.868;9.080;2024-03-29T11:37:11;4.00;;;1.60;;
77573;SDS011;66710;48.868;9.080;2024-03-29T11:39:37;3.17;;;1.98;;
77573;SDS011;66710;48.868;9.080;2024-03-29T11:42:03;3.20;;;1.63;;
77573;SDS011;66710;48.868;9.080;2024-03-29T11:44:28;4.38;;;1.95;;
77573;SDS011;66710;48.868;9.080;2024-03-29T11:46:55;3.50;;;1.77;;
77573;SDS011;66710;48.868;9.080;2024-03-29T11:49:24;4.30;;;1.70;;
77573;SDS011;66710;48.868;9.080;2024-03-29T11:51:49;2.95;;;1.85;;
77573;SDS011;66710;48.868;9.080;2024-03-29T11:54:15;3.55;;;1.88;;
77573;SDS011;66710;48.868;9.080;2024-03-29T11:56:41;2.42;;;1.60;;
77573;SDS011;66710;48.868;9.080;2024-03-29T11:59:07;3.13;;;1.70;;
77573;SDS011;66710;48.868;9.080;2024-03-29T12:01:33;4.15;;;1.50;;
77573;SDS011;66710;48.868;9.080;2024-03-29T12:03:58;5.00;;;2.05;;
77573;SDS011;66710;48.868;9.080;2024-03-29T12:06:24;4.00;;;1.92;;
77573;SDS011;66710;48.868;9.080;2024-03-29T12:08:50;1.60;;;1.10;;
77573;SDS011;66710;48.868;9.080;2024-03-29T12:11:18;2.95;;;1.50;;
77573;SDS011;66710;48.868;9.080;2024-03-29T12:13:44;1.73;;;1.10;;
77573;SDS011;66710;48.868;9.080;2024-03-29T12:16:10;3.25;;;1.70;;
77573;SDS011;66710;48.868;9.080;2024-03-29T12:18:35;2.08;;;1.10;;
77573;SDS011;66710;48.868;9.080;2024-03-29T12:21:01;3.63;;;1.42;;
77573;SDS011;66710;48.868;9.080;2024-03-29T12:23:27;3.88;;;1.60;;
77573;SDS011;66710;48.868;9.080;2024-03-29T12:25:56;3.42;;;1.70;;
77573;SDS011;66710;48.868;9.080;2024-03-29T12:28:23;3.75;;;1.60;;
77573;SDS011;66710;48.868;9.080;2024-03-29T12:30:52;3.95;;;1.80;;
77573;SDS011;66710;48.868;9.080;2024-03-29T12:33:21;6.10;;;1.92;;
77573;SDS011;66710;48.868;9.080;2024-03-29T12:35:49;2.50;;;1.70;;
77573;SDS011;66710;48.868;9.080;2024-03-29T12:38:18;3.22;;;1.70;;
77573;SDS011;66710;48.868;9.080;2024-03-29T12:40:45;2.83;;;1.73;;
77573;SDS011;66710;48.868;9.080;2024-03-29T12:43:13;3.35;;;1.80;;
77573;SDS011;66710;48.868;9.080;2024-03-29T12:45:39;3.05;;;1.58;;
77573;SDS011;66710;48.868;9.080;2024-03-29T12:48:19;2.65;;;1.52;;
77573;SDS011;66710;48.868;9.080;2024-03-29T12:50:46;2.20;;;1.25;;
77573;SDS011;66710;48.868;9.080;2024-03-29T12:53:12;1.92;;;1.20;;
77573;SDS011;66710;48.868;9.080;2024-03-29T12:55:39;2.92;;;1.55;;
77573;SDS011;66710;48.868;9.080;2024-03-29T12:58:10;1.40;;;1.00;;
77573;SDS011;66710;48.868;9.080;2024-03-29T13:00:36;1.83;;;1.30;;
77573;SDS011;66710;48.868;9.080;2024-03-29T13:03:03;2.45;;;1.23;;
77573;SDS011;66710;48.868;9.080;2024-03-29T13:05:28;3.45;;;1.33;;
77573;SDS011;66710;48.868;9.080;2024-03-29T13:08:02;1.83;;;1.17;;
77573;SDS011;66710;48.868;9.080;2024-03-29T13:10:29;2.75;;;1.20;;
77573;SDS011;66710;48.868;9.080;2024-03-29T13:12:55;2.88;;;1.45;;
77573;SDS011;66710;48.868;9.080;2024-03-29T13:15:21;3.80;;;1.25;;
77573;SDS011;66710;48.868;9.080;2024-03-29T13:17:50;4.10;;;1.30;;
77573;SDS011;66710;48.868;9.080;2024-03-29T13:20:16;2.17;;;1.00;;
77573;SDS011;66710;48.868;9.080;2024-03-29T13:22:43;1.13;;;0.98;;
77573;SDS011;66710;48.868;9.080;2024-03-29T13:25:13;1.73;;;0.90;;
77573;SDS011;66710;48.868;9.080;2024-03-29T13:27:39;2.90;;;0.93;;
77573;SDS011;66710;48.868;9.080;2024-03-29T13:30:06;1.50;;;1.00;;
77573;SDS011;66710;48.868;9.080;2024-03-29T13:32:32;0.77;;;0.45;;
77573;SDS011;66710;48.868;9.080;2024-03-29T13:34:59;2.50;;;0.88;;
77573;SDS011;66710;48.868;9.080;2024-03-29T13:37:25;2.53;;;1.17;;
77573;SDS011;66710;48.868;9.080;2024-03-29T13:39:54;1.67;;;0.70;;
77573;SDS011;66710;48.868;9.080;2024-03-29T13:42:20;1.92;;;1.17;;
77573;SDS011;66710;48.868;9.080;2024-03-29T13:44:46;2.20;;;1.00;;
77573;SDS011;66710;48.868;9.080;2024-03-29T13:47:14;1.95;;;1.05;;
77573;SDS011;66710;48.868;9.080;2024-03-29T13:49:41;2.33;;;1.10;;
77573;SDS011;66710;48.868;9.080;2024-03-29T13:52:10;1.58;;;1.02;;
77573;SDS011;66710;48.868;9.080;2024-03-29T13:54:36;1.83;;;0.82;;
77573;SDS011;66710;48.868;9.080;2024-03-29T13:57:02;1.67;;;1.00;;
77573;SDS011;66710;48.868;9.080;2024-03-29T13:59:29;2.00;;;0.90;;
77573;SDS011;66710;48.868;9.080;2024-03-29T14:01:55;7.07;;;5.82;;
77573;SDS011;66710;48.868;9.080;2024-03-29T14:04:21;4.88;;;1.90;;
77573;SDS011;66710;48.868;9.080;2024-03-29T14:06:47;3.00;;;1.42;;
77573;SDS011;66710;48.868;9.080;2024-03-29T14:09:13;3.65;;;1.40;;
77573;SDS011;66710;48.868;9.080;2024-03-29T14:11:39;2.70;;;1.35;;
77573;SDS011;66710;48.868;9.080;2024-03-29T14:14:05;2.30;;;1.13;;
77573;SDS011;66710;48.868;9.080;2024-03-29T14:16:33;2.95;;;1.05;;
77573;SDS011;66710;48.868;9.080;2024-03-29T14:18:58;2.08;;;1.10;;
77573;SDS011;66710;48.868;9.080;2024-03-29T14:21:23;1.15;;;0.90;;
77573;SDS011;66710;48.868;9.080;2024-03-29T14:23:48;0.80;;;0.80;;
77573;SDS011;66710;48.868;9.080;2024-03-29T14:26:14;1.67;;;0.95;;
77573;SDS011;66710;48.868;9.080;2024-03-29T14:28:39;2.05;;;1.05;;
77573;SDS011;66710;48.868;9.080;2024-03-29T14:31:04;1.15;;;0.90;;
77573;SDS011;66710;48.868;9.080;2024-03-29T14:33:30;1.77;;;1.00;;
77573;SDS011;66710;48.868;9.080;2024-03-29T14:35:55;1.85;;;1.13;;
77573;SDS011;66710;48.868;9.080;2024-03-29T14:38:22;1.95;;;1.30;;
77573;SDS011;66710;48.868;9.080;2024-03-29T14:40:47;1.90;;;1.02;;
77573;SDS011;66710;48.868;9.080;2024-03-29T14:43:13;1.58;;;1.08;;
77573;SDS011;66710;48.868;9.080;2024-03-29T14:45:39;2.30;;;1.40;;
77573;SDS011;66710;48.868;9.080;2024-03-29T14:48:05;3.15;;;1.20;;